Faktúry za rok 2016

január február marec apríl máj jún júl august september október november december

Por. č. Dátum doručenia Názov a adresa dodávateľa IČO Popis plnenia Suma bez DPH Suma s DPH Č. OBJ
1410 2.11.16 DONLY-PENZIÓN-FAJNNE s.r.o. 44078595 obedy 427,20 512,64  
1411 2.11.16 B2Bpartner 44413467 kancelárske kreslo 184,00 220,80 10970
1412 2.11.16 Eduard Kubinec - Praktik 33299153 ventily 154,79 185,75 10997
1413 2.11.16 Verlag Dashofer 35730129 publikácie HR v praxi 323,97 388,76  
1414 2.11.16 BVH. Spol, s.r.o. 35674148 ochranné pomôcky 293,68 352,42 10939
1415 2.11.16 ABB, s.r.o. 31389325 litium batreky 37,78 45,34 10940
1416 2.11.16 ABB, s.r.o. 31389325 servis 700,00 840,00 10309
1417 2.11.16 MOSA Solution, s.r.o 28736541 ventily 361,00 361,00 10965
1418 2.11.16 Eduard Kubinec - Praktik 33299153 ventily 2,68 3,22 10997
1419 2.11.16 D.K.C., s.r.o. 31571727 nafta 1501,12 1801,34 10536
1420 2.11.16 AGROMAT 31579663 maznica 69,94 83,93 10982
1421 3.11.16 Beata Dolincova - 34625364 angličtina 90,00 90,00  
1422 3.11.16 Bučina DDD, spol. s.r.o. 36059323 prevádzka vlečky 6337,16 7604,59 10822
1423 3.11.16 Ulianko a Partners, s.r.o. 36856517 právne služby 1500,00 1800,00 10291
1424 3.11.16 Bc. Judita Magdičová 46931210 služby 10/2016 290,00 290,00 10372
1425 4.11.16 Duslo, a.s. 35826487 tesnenie netesností 1584,00 1584,00 10903
1426 4.11.16 Slovenský vodohosp. Pod, š.p.. 3602204703 povrchová voda 5195,53 6234,64 10281
1427 4.11.16 ŽS Cargo Slovakia a.s. 35914921 vlečka 1834,00 2200,80 10822
1428 4.11.16 STEFE Zvolen s.r.o. 31612300 služby 12500,00 15000,00  
1429 4.11.16 PharmaSynergix, s.r.o. 36709221 tlaková sada 684,00 820,80 10952
1430 7.11.16 DeLux ZPS, s.r.o. 35934590 čistiace prostriedky 339,92 407,90 10942
1431 7.11.16 NCH SLOVAKIA s.r.o. 34096043 chémia 233,74 280,49 10962
1432 7.11.16 ProCare, a.s. 35890568 PZS 678,90 733,21 10450
1433 7.11.16 Linde Gas k.s 31373861 nájomné 280,58 336,70 10290
1434 7.11.16 AGRI - Servis, s.r.o. 36849685 servisné práce 828,10 993,62 10912
1435 7.11.16 Wienerberger 31418821 odobraný popolček 44633,52 53560,22 10935
1436 7.11.16 Spin 35866888 nájomné 66,39 79,67 10326
1437 7.11.16 Slovak Telekom, a.s. 35763469 služby 249,03 298,84  
1438 7.11.16 Slovak Telekom, a.s. 35763469 služby 255,56 306,67  
1439 7.11.16 G.P.S Zvolen spol. s r.o. 36639231 geodetické služby 300,00 360,00 10947
1440 7.11.16 G.P.S Zvolen spol. s r.o. 36639231 geodetické práce 1560,00 1872,00 10295
1441 7.11.16 MERTECH spol. s r.o. 31629024 ND 2902,00 3482,40 10902
1442 7.11.16 MERTECH spol. s r.o. 31629024 servis 390,00 468,00 10897
1443 7.11.16 SG Security, s.r.o. 44823266 služby strážna 5431,20 6517,44 10312
1444 7.11.16 Orange Slovensko 35697270 služby 656,20 782,26  
1445 7.11.16 Orange Slovensko 35697270 služby 32,00 38,40  
1446 7.11.16 NCH SLOVAKIA s.r.o. 34096043 chémia 496,25 595,50 10979
1447 7.11.16 VIK s.r.o. 36680192 školenie 170,00 204,00  
1448 7.11.16 TECHNIK-stavba a bývanie s.r.o. 47531711 ventil radiator 3,75 4,50 10981
1449 8.11.16 excell, a.s. 35804629 poradenstvo SAP 700,00 840,00 10308
1450 8.11.16 D.Trust Certifikačná Autorita, a.s. 35840005 certifikát 19,90 23,88  
1451 8.11.16 D.Trust Certifikačná Autorita, a.s. 35840005 certifikát 19,90 23,88  
1452 9.11.16 Sféra, a.s. 35757736 podpora prevádzky 664,00 796,80 11013
1453 9.11.16 A-Z lokomat s.r.o. 31617034 štiepka 223266,88 267920,26 10286
1454 9.11.16 Eurofins BEL/Novamann 31329209 analýzy vody 96,50 115,80 10280
1455 9.11.16 Elgas , s.r.o 3634242 plyn 18271,69 21926,03  
1456 9.11.16 SSE - Distribúcia, a.s. 36442151 elektrina VVN 11776,80 14132,16  
1457 9.11.16 SSE - Distribúcia, a.s. 36442151 elektrina VN 13082,31 15698,77  
1458 9.11.16 OSKO.a,s. 36044717 elektromateriál 126,25 151,50 10985
1459 9.11.16 Smart Computer s.r.o. 31629881 Wi-Fi 35,10 42,12 10894
1460 9.11.16 IMET-AKE, s.r.o. 31341870 ložisko 2334,00 2800,80 10953
1461 9.11.16 Michalek Vladimír Pohostinská činnosť 37059831 obedy 756,00 907,20  
1462 9.11.16 Michalek Vladimír Pohostinská činnosť 37059831 občerstvenie 22,10 26,52  
1463 9.11.16 TOPTRANS EU, a.s. 36703923 prepravné 15,86 19,03  
1464 10.11.16 Plast - Trend, s.r.o. 36619124 okná 1170,71 1170,71 10869
1465 10.11.16 VEIDEC SK s.r.o. 36421162 mazadlo 148,39 154,99 10990
1466 10.11.16 SSE - Distribúcia, a.s. 36442151 služba VN 0,00 0,00  
1467 10.11.16 Čas Energo Plus, s.r.o. 36034207 DRŠ 38942,52 46731,02 10285
1468 10.11.16 OMV, s.r.o. 604381 tankovanie 561,46 683,74  
1469 10.11.16 Železnice SR 31364501 elektrina 8,35 10,02  
1470 10.11.16 OKTE, a.s. 45687862 systémové služby 14457,17 17348,60 10351
1471 10.11.16 OKTE, a.s. 45687862 prevádzkovanie systému 46960,18 56352,22 10351
1472 11.11.16 VANKA elektro s.r.o. 47188863 svietidlo 276,75 332,10 10996
1473 11.11.16 formotor s.r.o. 47491191 xenonová výbojka 122,00 146,40 10984
1474 11.11.16 Narimex, s.r.o. 679976 lampa 227,06 272,47 10951
1475 11.11.16 ČSOB Leasing 35704713 poplatok za prevod vlastn. Leas. 30,00 36,00  
1476 11.11.16 Slovenský vodohosp. Pod, š.p.. 3602204703 voda 535,93 643,12 10310
1477 11.11.16 NCH SLOVAKIA s.r.o. 34096043 chémia 902,14 1082,57 10974
1478 11.11.16 Marius Pedersen 34115901 prenájom - kontajner 44,95 53,94 10284
1479 11.11.16 SOMI Systems, a.s. 36041432 licencia k software 437,76 525,31 10992
1480 11.11.16 SSE - Distribúcia, a.s. 36442151 služby 570,96 685,15  
1481 11.11.16 LDM Bratislava, s.r.o. 31381685 prístroj RP 5330 1050,00 1050,00 10622
1482 11.11.16 PORADCA s.r.o. 36371271 PaM 48,33 58,00  
1483 11.11.16 ŽS Cargo Slovakia a.s. 35914921 vlečka 9253,00 11103,60 10822
1484 11.11.16 EPO, s.r.o. 652598 ND 1416,00 1699,32 10993
1485 11.11.16 Karel Holoubek - Trade Group 25060996 palivo 416747,45 416747,45 10822
1486 11.11.16 Karel Holoubek - Trade Group 25060996 palivo 412219,53 412219,53 10822
1487 14.11.16 Scandi s.r.o. 36642983 tork papier 62,40 74,88 10973
1488 14.11.16 Agentúra TEMPO 36433292 seminár 55,00 66,00  
1489 14.11.16 Staf, automation, s.r.o. 36005231 guľový kohút ND 861,60 1033,92 10892
1490 14.11.16 HEKAS s.r.o. 36695432 konferencia vodohospodárov 145,00 174,00  
1491 14.11.16 Fittich s.r.o. 46849891 revízia EZS 170,00 204,00 10885
1492 14.11.16 ZAT, a.s. 45148431 oprava 498,00 498,00 10812
1493 14.11.16 BiLFINGER, s.r.o. 47784709 ND turbína 3567,00 3567,00 10862
1494 14.11.16 Fittich s.r.o. 46849891 revízia EZS 90,00 108,00 10885
1495 14.11.16 SSE - Distribúcia, a.s. 36442151 služba VVN 1113,84 1336,61  
1496 15.11.16 Chéque Déjeuner 31396674 lístky 6479,01 6491,71  
1497 15.11.16 OKTE, a.s. 45687862 odchýlka  1896,63 2275,96  
1498 15.11.16 SEPS, a.s. 35829141 PpS pokuta 82,00 82,00  
1499 15.11.16 D.K.C., s.r.o. 31571727 nafta 1710,98 2053,18 10536
1500 15.11.16 OKTE, a.s. 45687862 zúčtovanie odchýlok 79,54 95,45  
1501 16.11.16 Proeko  35900831 školenie 113,33 136,00  
1502 16.11.16 Narimex, s.r.o. 679976 fúrik stavebný 65,80 78,96 10977
1503 16.11.16 OdriStav, s.r.o. 46274481 strešný materiál 112,53 135,04 11020
1504 16.11.16 OdriStav, s.r.o. 46274481 strešný materiál 286,45 343,74 11021
1505 16.11.16 CUMMINS Czech Republic, s.r.o. 27103374 oprava 451,95 451,95 10983
1506 16.11.16 Eurofins BEL/Novamann 31329209 povrchová voda - analýzy 1900,00 2280,00 10294
1507 16.11.16 Elevátor servis, s.r.o 36045641 servis 94,00 94,00 10325
1508 16.11.16 František Štefanšich 47635029 oprava vodoznaku 2360,00 2360,00  
1509 16.11.16 Viera Kučerová - KOMA 45913471 deratizácia objektov 1150,00 1150,00 10987
1510 16.11.16 TECHNIK-stavba a bývanie s.r.o. 47531711 sanita 106,25 127,50 11019
1511 16.11.16 TECHNIK-stavba a bývanie s.r.o. 47531711 sanita 37,92 45,50 11019
1512 16.11.16 Beličková, s.r.o. 45902836 materiál 911,04 1093,25 11001
1513 21.11.16 AUTOGLAS s.r.o. 36248703 výmena skla 206,56 247,87  
1514 21.11.16 ZVARMAT s.r.o. 36622567 elektrody 490,84 589,01 11010
1515 21.11.16 TECH - Lit 50006193 dávkovač + čistič na ruky 960,00 1152,00 10976
1516 21.11.16 Verlag Dashofer 35730129 záloha na predplatné 188,40 188,40  
1517 21.11.16 DeLux ZPS, s.r.o. 35934590 čistiace prostriedky 280,35 336,42 11003
1518 21.11.16 Fortischem a.s. 46693874 kyselina chlorovodíková 2718,00 3261,60 10989
1519 21.11.16 Energodata, spol. s.r.o. 30223806 nájomné 29887,16 35864,59 10350
1520 21.11.16 ŽS Cargo Slovakia a.s. 35914921 vlečka 1834,00 2200,80 10822
1521 21.11.16 REMOS Zvolen, s.r.o 36032506 zemné práce 500,00 500,00 10957
1522 21.11.16 REMOS Zvolen, s.r.o 36032506 oprava parovodu 3034,40 3034,40 11004
1523 21.11.16 Dušan Paučula - Electrical Services 35493267 odborné prehliadky 1200,00 1200,00 10960
1524 21.11.16 Dušan Paučula - Electrical Services 35493267 odborné prehliadky 1600,00 1600,00 10938
1525 21.11.16 Dušan Paučula - Electrical Services 35493267 odborné prehliadky 1550,00 1550,00 10906
1526 22.11.16 Eduard Kubinec - Praktik 33299153 ohrievač vody 133,33 160,00 11002
1527 22.11.16 REMA TIP TOP INCO-SK, s.r.o. 31621643 dopravníkový pás - spojovník 408,59 490,31 10972
1528 22.11.16 W.R.V., s.r.o. 4620096 kefa hubice 11,20 13,44 11007
1529 22.11.16 A-Z lokomat s.r.o. 31617034 DRŠ 239089,31 286907,17  
1530 22.11.16 D.K.C., s.r.o. 31571727 nafta 849,00 1018,80 10536
1531 22.11.16 Narimex, s.r.o. 679976 svietidlo 54,00 64,80 11005
1532 23.11.16 PPA inžiniering, s.r.o. 31376045 systém kontroly riadenia 1785,00 2142,00  
1533 23.11.16 BVH. Spol, s.r.o. 35674148 oop 1341,96 1610,35 10948
1534 23.11.16 MICROWELL, spol. s.r.o. 31414249 overenie 2390,00 2868,00 10967
1535 23.11.16 Čas Energo Plus, s.r.o. 36034207 odpadová biomasa 80889,86 97067,83  
1536 23.11.16 OMV, s.r.o. 604381 PHM 530,91 637,10  
1537 23.11.16 TEMPRA , s.r.o. 31639607 oprava vlečky 7485,57 7485,57 10917
1538 23.11.16 ADK MEDIA, spol. s r.o. 46371630 záloha na kopírku 672,98 672,98 11026
1539 24.11.16 Elektro management, s.r.o. 46701958 konferencia elektrotechnikov 45,83 55,00  
1540 24.11.16 Orange Slovensko 35697270 služby 382,50 459,00  
1541 24.11.16 KUHN - Slovakia 31362516 servis 1278,59 1534,31  
1542 24.11.16 Dušan Paučula - Electrical Services 35493267 odborné prehliadky 1550,00 1550,00 10956
1543 24.11.16 Dušan Paučula - Electrical Services 35493267 odborné prehliadky 700,00 700,00 10964
1544 24.11.16 Kongres STUDIO, spol. s.r.o. 45384851 účast. pop- seminár - Ďuríková 0,00 0,00  
1545 25.11.16 NCH SLOVAKIA s.r.o. 34096043 chémia 1327,54 1593,05 11017
1546 25.11.16 Vertical Industrial, a.s. 35830085 údržba 283,00 339,60 11016
1547 25.11.16 ŽS Cargo Slovakia a.s. 35914921 vlečka 1961,60 2353,92 10822
1548 25.11.16 EUROSTEEL Plus, s.r.o 50133594 jaklovina 237,48 284,98  
1549 28.11.16 Robert Otiepka LURO 30455049 vrece číre 83,40 100,08 11000
1550 28.11.16 Narimex, s.r.o. 679976 svietidlo 297,00 356,40 11015
1551 28.11.16 MAFRA Slovakia, a.s. 31333524 HN 165,83 199,00  
1552 28.11.16 SPX, s.r.o. 36427012 záloha za konferenciu 468,00 468,00  
1553 28.11.16 Linde Gas k.s 31373861 plyn 71,35 85,62 10290
1554 28.11.16 Orange Slovensko 35697270 telefon 465,00 558,00  
1555 28.11.16 elektrik group, s.r.o. 36745090 revízia  1100,00 1320,00 10920
1556 28.11.16 elektrik group, s.r.o. 36745090 revízia  1090,00 1308,00 10944
1557 28.11.16 elektrik group, s.r.o. 36745090 revízia  2900,00 3480,00 10959
1558 28.11.16 ŽS Cargo Slovakia a.s. 35914921 vlečka 1909,60 2291,52 10822
1559 29.11.16 EPO, s.r.o. 652598 materiál + ND 403,20 483,84 11037
1560 29.11.16 BVH. Spol, s.r.o. 35674148 OPP 210,77 252,92 10995
1561 29.11.16 BVH. Spol, s.r.o. 35674148 OPP 921,06 1105,27 10948
1562 29.11.16 B2Bpartner 44413467 kancelársky nábytok 541,00 649,20 11025
1563 30.11.16 TECHNIK-stavba a bývanie s.r.o. 47531711 ND materál 53,75 64,50 11055
1564 30.11.16 DONLY-PENZIÓN-FAJNNE s.r.o. 44078595 obedy 392,49 470,99  
1565 30.11.16 DONLY-PENZIÓN-FAJNNE s.r.o. 44078595 obedy 2,67 3,20  
1566 30.11.16 SEZ - KES 30778603 publikácie  85,80 85,80 11008
1567 30.11.16 MC Lift, s.r.o. 47335441 oprava vozíka 131,81 158,17 11042
1568 30.11.16 Fittich s.r.o. 46849891 kontrola EPS 50,00 60,00 10266
1569 30.11.16 Eltodo SK, a.s. 46924388 montážna plošina 133,60 160,32 11018
1570 30.11.16 Eurofins BEL/Novamann 31329209 analýzy vody 96,50 115,80 10280
1571 30.11.16 JF, spol. s.r.o 36620009 opakované školenie 15,00 18,00  
1572 30.11.16 WUSAM a.s. 31630545 česlo 856,00 1027,20 10908
1573 30.11.16 Karel Holoubek - Trade Group 25060996 palivo 504676,11 504676,11 10822
1574 30.11.16 Karel Holoubek - Trade Group 25060996 palivo 195721,89 195721,89 10822
1575 30.11.16 METRO Cash & Carry 45952671 tablety do pisoárov 12,58 15,10  
1576 30.11.16 Beata Dolincova - 34625364 angličtina 210,00 210,00  
1577 30.11.16 AutoKODUS s.r.o. 36530751 automateriál 369,21 443,05 11022
1578 30.11.16 AutoKODUS s.r.o. 36530751 čistenie auta 49,34 59,21 11034
1579 30.11.16 AutoKODUS s.r.o. 36530751 služby + ND 17,40 20,88 10929